Laredo International, TX

3:18 AM CDT en Noviembre 01, 2014 (GMT -0500)
Zapata | Change Station
CLOSE
Current Station
Aeropuerto
Location: Zapata,
Altura: 423 ft
Estaciones meteorológicas cercanas

Alt 423 ft 26.97 °N, 99.25 °W | Updated 48 minutes ago

Despejado
Despejado
58 ° F
Sensación térmica 58 ° F
N
4
Viento Variable Viento desde ENE

Hoy
Alta -- | Baja -- ° F
--% Posibilidad de precipitaciones
Ayer
Alta -- | Baja -- ° F
Precip. -- pul
7:48 AM 6:53 PM
Gibosa creciente, 64% visible
Presión 30.26 pul
Visibilidad 10.0 Millas
Nubes Despejado
Punto de rocío 47 ° F
Humedad 67%
Precipitaciones 0.00 pul
Espesor de la nieve No disponible.
UV 0 de una escala de 12
Polen 4.40 de una escala de 12
Calidad del aire No disponible.
Flu Activity No disponible.
METAR KAPY 010730Z AUTO 06003KT 10SM CLR 14/08 A3026 RMK AO2 T01430082

More Conditions Fewer Conditions

Presión 30.26 pul
Visibilidad 10.0 Millas
Nubes Despejado
Punto de rocío 47 ° F
Humedad 67%
Precipitaciones 0.00 pul
Espesor de la nieve No disponible.
UV 0 de una escala de 12
Polen 4.40 de una escala de 12
Calidad del aire No disponible.
Flu Activity No disponible.
METAR KAPY 010730Z AUTO 06003KT 10SM CLR 14/08 A3026 RMK AO2 T01430082

More Conditions Fewer Conditions

10-Day Weather Forecast

Almanac

Astronomía

Nov. 01, 2014 Salida Puesta
Hora real
Crepúsculo civil
Crepúsculo náutico
Crepúsculo astronómico
Luna
Horas de luz
Horas de luz
Tomorrow will be .
, % of the Moon is Illuminated

Extremos de hoy

Máximos del estado Bajos del estado

Community

WunderPhotos

Upload Photos

1,766,866 ¡fotos cargadas!

WunderBlogs® & News

Nearby

Calidad del aire

  Calidad del aire Índice AQ Contaminante
Not available.

Grosos de nieve

Estación Profundido Altura

Actividad de terremotos

Ciudad Distance Mag. Tiempo y dato
Magnitud mínima muestra es 2,5.

Temperaturas de aguas costeras

Lugar Temperatura

Estaciones meteorológicas cercanas